createdAt,value
2022-11-13T00:02:58.120Z,19.13
2022-11-13T00:06:16.912Z,18.08
2022-11-13T00:09:35.897Z,17.95
2022-11-13T00:12:54.917Z,20.25
2022-11-13T00:16:14.898Z,18.05
2022-11-13T00:19:33.916Z,17.33
2022-11-13T00:22:53.046Z,19.48
2022-11-13T00:26:16.918Z,14.48
2022-11-13T00:29:35.940Z,16.60
2022-11-13T00:32:54.944Z,21.23
2022-11-13T00:36:34.924Z,18.38
2022-11-13T00:39:58.528Z,19.33
2022-11-13T00:43:17.935Z,17.92
2022-11-13T00:46:36.956Z,17.35
2022-11-13T00:49:55.931Z,20.17
2022-11-13T00:53:07.936Z,16.30
2022-11-13T00:56:26.952Z,15.90
2022-11-13T00:59:45.948Z,16.60
2022-11-13T01:03:04.951Z,15.60
2022-11-13T01:06:39.008Z,15.13
2022-11-13T01:09:57.937Z,17.75
2022-11-13T01:13:09.943Z,17.58
2022-11-13T01:16:29.957Z,14.98
2022-11-13T01:19:48.918Z,17.50
2022-11-13T01:23:07.962Z,15.40
2022-11-13T01:26:32.941Z,20.70
2022-11-13T01:29:51.978Z,19.08
2022-11-13T01:33:10.950Z,19.33
2022-11-13T01:36:32.972Z,15.85
2022-11-13T01:39:51.947Z,17.48
2022-11-13T01:43:10.997Z,15.25
2022-11-13T01:46:34.949Z,18.98
2022-11-13T01:49:54.944Z,15.52
2022-11-13T01:53:13.948Z,18.40
2022-11-13T01:56:32.982Z,17.08
2022-11-13T02:00:00.949Z,14.30
2022-11-13T02:03:12.988Z,15.52
2022-11-13T02:06:32.949Z,14.18
2022-11-13T02:09:53.949Z,15.30
2022-11-13T02:13:12.946Z,16.33
2022-11-13T02:16:32.002Z,14.77
2022-11-13T02:19:53.941Z,14.48
2022-11-13T02:23:27.003Z,19.15
2022-11-13T02:26:45.963Z,14.10
2022-11-13T02:30:07.445Z,15.57
2022-11-13T02:33:34.934Z,20.02
2022-11-13T02:36:46.971Z,17.05
2022-11-13T02:40:05.968Z,16.60
2022-11-13T02:43:17.979Z,22.08
2022-11-13T02:46:36.967Z,19.30
2022-11-13T02:49:55.950Z,15.55
2022-11-13T02:53:14.968Z,19.85
2022-11-13T02:56:33.994Z,18.20
2022-11-13T02:59:52.976Z,19.13
2022-11-13T03:03:12.014Z,19.40
2022-11-13T03:06:31.018Z,20.48
2022-11-13T03:09:50.011Z,20.58
2022-11-13T03:13:09.001Z,19.27
2022-11-13T03:16:29.981Z,18.15
2022-11-13T03:19:48.997Z,16.83
2022-11-13T03:23:07.977Z,18.00
2022-11-13T03:26:29.024Z,21.15
2022-11-13T03:29:47.971Z,16.70
2022-11-13T03:33:09.995Z,17.52
2022-11-13T03:36:30.030Z,15.95
2022-11-13T03:39:49.010Z,16.10
2022-11-13T03:43:08.002Z,14.77
2022-11-13T03:46:21.013Z,18.30
2022-11-13T03:49:39.972Z,18.65
2022-11-13T03:52:59.007Z,14.88
2022-11-13T03:56:18.010Z,16.08
2022-11-13T03:59:37.022Z,17.60
2022-11-13T04:02:48.992Z,15.02
2022-11-13T04:06:08.068Z,17.35
2022-11-13T04:09:27.001Z,16.42
2022-11-13T04:12:46.025Z,16.98
2022-11-13T04:16:05.016Z,15.55
2022-11-13T04:19:24.014Z,18.98
2022-11-13T04:22:43.013Z,14.15
2022-11-13T04:26:02.046Z,13.52
2022-11-13T04:29:20.997Z,15.73
2022-11-13T04:32:40.097Z,18.20
2022-11-13T04:35:59.031Z,14.55
2022-11-13T04:39:18.024Z,13.80
2022-11-13T04:42:54.999Z,16.98
2022-11-13T04:46:14.037Z,13.88
2022-11-13T04:49:33.010Z,13.13
2022-11-13T04:52:52.031Z,14.95
2022-11-13T04:56:11.027Z,11.80
2022-11-13T04:59:30.018Z,14.95
2022-11-13T05:02:49.016Z,15.13
2022-11-13T05:06:01.020Z,14.75
2022-11-13T05:09:20.024Z,13.60
2022-11-13T05:12:39.039Z,13.35
2022-11-13T05:15:58.177Z,21.05
2022-11-13T05:19:17.035Z,14.98
2022-11-13T05:22:29.036Z,14.38
2022-11-13T05:25:48.045Z,15.95
2022-11-13T05:29:07.021Z,14.10
2022-11-13T05:32:26.055Z,15.40
2022-11-13T05:35:45.074Z,13.68
2022-11-13T05:39:04.022Z,17.27
2022-11-13T05:42:23.039Z,17.10
2022-11-13T05:45:42.054Z,14.82
2022-11-13T05:49:02.033Z,17.80
2022-11-13T05:52:21.048Z,14.48
2022-11-13T05:55:40.116Z,17.67
2022-11-13T05:58:59.057Z,16.08
2022-11-13T06:02:18.141Z,19.45
2022-11-13T06:05:37.044Z,15.95
2022-11-13T06:08:57.068Z,14.60
2022-11-13T06:12:16.062Z,14.98
2022-11-13T06:15:35.058Z,15.35
2022-11-13T06:18:55.059Z,15.18
2022-11-13T06:22:14.130Z,15.43
2022-11-13T06:25:33.070Z,23.73
2022-11-13T06:28:52.093Z,16.80
2022-11-13T06:32:11.068Z,17.77
2022-11-13T06:35:30.063Z,20.77
2022-11-13T06:38:50.195Z,17.25
2022-11-13T06:42:09.330Z,15.70
2022-11-13T06:45:28.418Z,17.45
2022-11-13T06:48:47.059Z,16.63
2022-11-13T06:52:07.261Z,18.73
2022-11-13T06:55:26.072Z,15.68
2022-11-13T06:58:45.212Z,18.00
2022-11-13T07:02:05.281Z,14.80
2022-11-13T07:05:24.116Z,16.83
2022-11-13T07:08:44.391Z,17.45
2022-11-13T07:12:04.093Z,16.17
2022-11-13T07:15:23.204Z,14.88
2022-11-13T07:18:42.082Z,14.48
2022-11-13T07:21:54.087Z,19.40
2022-11-13T07:25:13.097Z,15.88
2022-11-13T07:28:32.351Z,13.57
2022-11-13T07:31:52.180Z,14.70
2022-11-13T07:35:11.330Z,14.07
2022-11-13T07:38:30.792Z,14.35
2022-11-13T07:41:50.398Z,13.82
2022-11-13T07:45:09.122Z,13.18
2022-11-13T07:48:30.552Z,14.27
2022-11-13T07:51:49.107Z,15.55
2022-11-13T07:55:08.249Z,12.25
2022-11-13T07:58:27.434Z,17.92
2022-11-13T08:01:46.128Z,15.10
2022-11-13T08:04:58.089Z,17.95
2022-11-13T08:08:18.533Z,10.75
2022-11-13T08:11:37.140Z,14.75
2022-11-13T08:14:49.116Z,11.73
2022-11-13T08:21:28.137Z,13.00
2022-11-13T08:24:41.093Z,18.75
2022-11-13T08:28:00.354Z,11.18
2022-11-13T08:31:24.135Z,14.32
2022-11-13T08:34:36.163Z,12.38
2022-11-13T08:37:55.098Z,15.40
2022-11-13T08:41:16.114Z,13.07
2022-11-13T08:44:35.219Z,11.48
2022-11-13T08:47:54.211Z,12.13
2022-11-13T08:51:06.272Z,15.88
2022-11-13T08:54:25.113Z,15.20
2022-11-13T08:57:44.427Z,11.90
2022-11-13T09:01:03.113Z,14.82
2022-11-13T09:04:22.147Z,12.23
2022-11-13T09:07:41.835Z,11.63
2022-11-13T09:11:01.160Z,15.05
2022-11-13T09:14:20.134Z,11.60
2022-11-13T09:17:39.140Z,9.70
2022-11-13T09:20:58.184Z,14.18
2022-11-13T09:24:17.146Z,14.80
2022-11-13T09:27:36.145Z,14.88
2022-11-13T09:30:55.162Z,9.63
2022-11-13T09:34:14.199Z,8.32
2022-11-13T09:37:34.156Z,7.63
2022-11-13T09:41:09.197Z,6.78
2022-11-13T09:44:56.224Z,6.57
2022-11-13T09:48:40.166Z,8.45
2022-11-13T09:52:05.254Z,8.05
2022-11-13T09:55:31.180Z,7.85
2022-11-13T09:59:00.151Z,7.68
2022-11-13T10:02:14.159Z,6.28
2022-11-13T10:05:26.181Z,5.55
2022-11-13T10:09:12.157Z,6.82
2022-11-13T10:12:24.184Z,5.60
2022-11-13T10:15:44.169Z,5.85
2022-11-13T10:19:04.252Z,4.57
2022-11-13T10:22:34.170Z,4.50
2022-11-13T10:25:53.189Z,5.90
2022-11-13T10:29:20.211Z,3.63
2022-11-13T10:32:41.190Z,5.43
2022-11-13T10:36:02.204Z,4.93
2022-11-13T10:39:22.185Z,6.10
2022-11-13T10:42:43.203Z,4.05
2022-11-13T10:46:28.179Z,3.43
2022-11-13T10:49:47.202Z,5.38
2022-11-13T10:53:08.178Z,3.42
2022-11-13T10:56:34.194Z,6.33
2022-11-13T10:59:58.202Z,4.25
2022-11-13T11:03:17.192Z,5.57
2022-11-13T11:07:18.512Z,4.68
2022-11-13T11:11:05.210Z,3.80
2022-11-13T11:14:48.224Z,2.33
2022-11-13T11:18:20.334Z,7.22
2022-11-13T11:21:43.223Z,5.63
2022-11-13T11:25:09.265Z,5.65
2022-11-13T11:29:01.272Z,4.07
2022-11-13T11:35:52.301Z,3.80
2022-11-13T11:39:32.357Z,3.22
2022-11-13T11:43:09.246Z,3.80
2022-11-13T11:46:30.253Z,4.45
2022-11-13T11:49:50.347Z,3.78
2022-11-13T11:53:14.207Z,4.40
2022-11-13T11:56:30.260Z,7.75
2022-11-13T12:00:04.321Z,4.20
2022-11-13T12:03:51.252Z,4.00
2022-11-13T12:07:26.314Z,4.45
2022-11-13T12:10:51.347Z,4.18
2022-11-13T12:14:27.258Z,4.63
2022-11-13T12:17:58.310Z,4.05
2022-11-13T12:21:20.672Z,3.58
2022-11-13T12:25:08.255Z,5.18
2022-11-13T12:28:45.287Z,3.15
2022-11-13T12:32:34.258Z,4.05
2022-11-13T12:35:46.278Z,2.92
2022-11-13T12:43:03.243Z,2.65
2022-11-13T12:46:24.268Z,5.30
2022-11-13T12:49:48.280Z,5.10
2022-11-13T12:53:22.276Z,4.55
2022-11-13T12:56:34.272Z,2.88
2022-11-13T13:03:21.264Z,5.70
2022-11-13T13:06:45.306Z,7.40
2022-11-13T13:10:25.267Z,2.97
2022-11-13T13:14:02.434Z,4.68
2022-11-13T13:17:27.281Z,3.95
2022-11-13T13:20:49.306Z,3.17
2022-11-13T13:24:14.403Z,5.78
2022-11-13T13:27:37.274Z,5.00
2022-11-13T13:31:17.325Z,4.60
2022-11-13T13:34:50.274Z,4.03
2022-11-13T13:38:24.301Z,5.28
2022-11-13T13:42:13.267Z,4.07
2022-11-13T13:45:58.323Z,4.13
2022-11-13T13:49:21.345Z,3.53
2022-11-13T13:52:45.294Z,4.97
2022-11-13T13:56:00.358Z,3.63
2022-11-13T13:59:28.295Z,3.03
2022-11-13T14:02:47.323Z,4.25
2022-11-13T14:06:03.422Z,8.00
2022-11-13T14:09:33.544Z,4.40
2022-11-13T14:12:55.291Z,4.53
2022-11-13T14:19:27.323Z,4.32
2022-11-13T14:22:48.390Z,6.90
2022-11-13T14:29:34.341Z,3.90
2022-11-13T14:36:07.900Z,5.43
2022-11-13T14:39:46.336Z,4.45
2022-11-13T14:43:11.324Z,4.72
2022-11-13T14:46:42.374Z,5.68
2022-11-13T14:50:01.346Z,5.35
2022-11-13T14:53:22.337Z,5.57
2022-11-13T14:56:53.410Z,9.57
2022-11-13T15:00:26.333Z,8.10
2022-11-13T15:03:38.505Z,7.65
2022-11-13T15:07:01.350Z,7.28
2022-11-13T15:10:25.344Z,5.10
2022-11-13T15:13:44.331Z,8.80
2022-11-13T15:17:05.335Z,6.88
2022-11-13T15:20:29.334Z,10.67
2022-11-13T15:23:49.373Z,8.15
2022-11-13T15:27:08.329Z,8.45
2022-11-13T15:30:27.361Z,6.35
2022-11-13T15:33:46.398Z,6.82
2022-11-13T15:37:05.368Z,10.20
2022-11-13T15:40:25.338Z,11.15
2022-11-13T15:43:44.349Z,10.88
2022-11-13T15:47:04.332Z,10.57
2022-11-13T15:50:23.410Z,13.02
2022-11-13T15:53:42.377Z,11.35
2022-11-13T15:57:02.368Z,13.55
2022-11-13T16:00:31.373Z,11.32
2022-11-13T16:03:50.364Z,9.70
2022-11-13T16:07:09.401Z,11.25
2022-11-13T16:10:29.413Z,12.00
2022-11-13T16:13:48.485Z,15.15
2022-11-13T16:17:09.393Z,17.77
2022-11-13T16:20:29.372Z,16.73
2022-11-13T16:23:49.368Z,14.33
2022-11-13T16:27:10.389Z,12.15
2022-11-13T16:30:31.419Z,15.40
2022-11-13T16:33:51.386Z,9.82
2022-11-13T16:37:10.414Z,15.25
2022-11-13T16:40:37.400Z,16.85
2022-11-13T16:43:57.386Z,16.60
2022-11-13T16:47:16.378Z,16.88
2022-11-13T16:50:46.390Z,13.30
2022-11-13T16:54:05.401Z,14.38
2022-11-13T16:57:25.525Z,12.18
2022-11-13T17:00:44.425Z,11.30
2022-11-13T17:04:03.403Z,13.48
2022-11-13T17:07:26.543Z,20.52
2022-11-13T17:10:38.384Z,12.55
2022-11-13T17:13:57.389Z,21.33
2022-11-13T17:17:21.380Z,13.07
2022-11-13T17:20:40.475Z,13.65
2022-11-13T17:23:59.430Z,14.02
2022-11-13T17:27:18.403Z,13.77
2022-11-13T17:30:37.405Z,15.38
2022-11-13T17:33:56.439Z,18.58
2022-11-13T17:37:15.406Z,28.25
2022-11-13T17:40:34.440Z,28.58
2022-11-13T17:43:59.887Z,32.83
2022-11-13T17:47:19.416Z,33.20
2022-11-13T17:50:38.412Z,30.10
2022-11-13T17:53:57.433Z,28.23
2022-11-13T17:57:16.414Z,32.25
2022-11-13T18:00:35.416Z,40.42
2022-11-13T18:03:55.411Z,33.65
2022-11-13T18:07:14.457Z,32.25
2022-11-13T18:10:33.386Z,31.45
2022-11-13T18:13:52.450Z,30.40
2022-11-13T18:17:11.398Z,29.05
2022-11-13T18:20:30.608Z,25.13
2022-11-13T18:23:49.595Z,26.08
2022-11-13T18:27:08.460Z,23.85
2022-11-13T18:30:20.416Z,24.45
2022-11-13T18:33:39.562Z,27.15
2022-11-13T18:36:58.409Z,28.02
2022-11-13T18:40:10.426Z,21.15
2022-11-13T18:43:29.730Z,26.40
2022-11-13T18:46:48.414Z,22.48
2022-11-13T18:50:00.417Z,28.50
2022-11-13T18:53:19.436Z,24.60
2022-11-13T18:56:40.520Z,23.23
2022-11-13T18:59:59.466Z,24.00
2022-11-13T19:03:18.462Z,20.67
2022-11-13T19:06:40.081Z,23.52
2022-11-13T19:09:58.499Z,22.77
2022-11-13T19:13:17.504Z,19.38
2022-11-13T19:16:39.454Z,22.02
2022-11-13T19:20:06.529Z,23.65
2022-11-13T19:23:25.523Z,20.15
2022-11-13T19:26:44.544Z,22.52
2022-11-13T19:29:56.552Z,21.60
2022-11-13T19:33:15.571Z,19.35
2022-11-13T19:36:35.582Z,22.50
2022-11-13T19:39:54.575Z,23.17
2022-11-13T19:43:13.516Z,17.13
2022-11-13T19:46:33.496Z,18.38
2022-11-13T19:49:46.539Z,25.55
2022-11-13T19:53:05.548Z,20.33
2022-11-13T19:56:24.526Z,22.77
2022-11-13T19:59:36.570Z,24.67
2022-11-13T20:02:55.553Z,26.50
2022-11-13T20:06:14.566Z,22.92
2022-11-13T20:09:29.624Z,24.33
2022-11-13T20:12:48.541Z,26.08
2022-11-13T20:16:07.587Z,30.80
2022-11-13T20:19:19.560Z,22.20
2022-11-13T20:22:38.599Z,27.83
2022-11-13T20:26:04.578Z,29.55
2022-11-13T20:29:23.623Z,30.45
2022-11-13T20:32:42.548Z,23.50
2022-11-13T20:36:07.556Z,23.58
2022-11-13T20:39:19.562Z,27.23
2022-11-13T20:42:40.566Z,24.40
2022-11-13T20:45:59.546Z,25.92
2022-11-13T20:49:11.557Z,23.05
2022-11-13T20:52:30.566Z,26.23
2022-11-13T20:55:49.547Z,26.98
2022-11-13T20:59:10.547Z,29.00
2022-11-13T21:02:29.487Z,29.48
2022-11-13T21:05:48.525Z,31.00
2022-11-13T21:09:08.485Z,26.85
2022-11-13T21:12:27.479Z,30.90
2022-11-13T21:15:46.486Z,28.65
2022-11-13T21:19:05.476Z,23.08
2022-11-13T21:22:17.489Z,26.55
2022-11-13T21:25:36.482Z,24.00
2022-11-13T21:28:55.492Z,24.08
2022-11-13T21:32:14.478Z,30.48
2022-11-13T21:35:33.731Z,23.10
2022-11-13T21:38:52.572Z,24.05
2022-11-13T21:42:11.524Z,27.38
2022-11-13T21:45:30.471Z,26.83
2022-11-13T21:48:49.524Z,29.83
2022-11-13T21:52:08.486Z,26.13
2022-11-13T21:55:27.509Z,28.83
2022-11-13T21:58:51.493Z,27.05
2022-11-13T22:02:10.576Z,27.80
2022-11-13T22:05:29.489Z,32.63
2022-11-13T22:08:48.534Z,31.52
2022-11-13T22:12:07.541Z,33.47
2022-11-13T22:15:26.525Z,37.90
2022-11-13T22:18:45.584Z,32.38
2022-11-13T22:22:04.522Z,33.03
2022-11-13T22:25:23.518Z,29.90
2022-11-13T22:28:42.534Z,26.48
2022-11-13T22:32:01.543Z,23.77
2022-11-13T22:35:20.520Z,27.60
2022-11-13T22:38:39.540Z,25.50
2022-11-13T22:41:58.510Z,27.75
2022-11-13T22:45:23.757Z,29.00
2022-11-13T22:48:42.523Z,23.40
2022-11-13T22:52:01.524Z,23.95
2022-11-13T22:55:20.523Z,28.42
2022-11-13T22:58:40.558Z,25.80
2022-11-13T23:01:59.508Z,28.90
2022-11-13T23:05:18.531Z,30.58
2022-11-13T23:08:37.522Z,28.98
2022-11-13T23:11:56.539Z,26.27
2022-11-13T23:15:15.537Z,32.78
2022-11-13T23:18:34.551Z,27.77
2022-11-13T23:21:53.518Z,35.05
2022-11-13T23:25:12.532Z,26.70
2022-11-13T23:28:31.877Z,27.90
2022-11-13T23:31:50.557Z,30.95
2022-11-13T23:35:09.532Z,32.28
2022-11-13T23:38:28.897Z,27.50
2022-11-13T23:41:47.538Z,36.58
2022-11-13T23:45:06.536Z,31.13
2022-11-13T23:48:19.547Z,30.90
2022-11-13T23:51:39.554Z,32.03
2022-11-13T23:54:58.537Z,34.05
2022-11-13T23:58:18.555Z,26.90
